Terminal Aerodrome Forecast
Issued by NWS Sterling, VA

Home | Current Version | Previous Version | Text Only | Print | Product List | Glossary On
Versions: 1 2 3 4 5 6 7 8 9 10 11 12 13 14 15 16 17 18 19 20 21 22 23 24 25 26
499
FTUS41 KLWX 202034 AAA
TAFBWI
TAF AMD
KBWI 202034Z 2021/2124 30009G16KT P6SM FEW060 FEW120 SCT250
     FM210000 32005KT P6SM SCT200
     FM211500 36007KT P6SM SCT050 SCT200=

USA.gov is the U.S. government's official web portal to all federal, state and local government web resources and services.